Elk, CA (95432)

9:09 PM PDT on May 23, 2015 (GMT -0700)
Irish Beach | | Change Station
CLOSE
Current Station
Personal Weather Station
Location: Manchester, CA
Elevation: 276 ft
Nearby Weather Stations

Elev 276 ft 39.02 °N, 123.69 °W | Updated 1 minute ago

Clear
Clear
52.7 °F
Feels Like 52.7 °F
N
4.0
Wind Variable Wind from North
Gusts 6.0 mph

Today
High -- | Low -- °F
--% Chance of Precip.
Yesterday
High -- | Low -- °F
Precip. -- in
5:55 AM 8:28 PM
Waxing Crescent, 35% visible
Pressure 30.00 in
Visibility 10.0 miles
Clouds Clear
Dew Point 50 °F
Humidity 89%
Rainfall 0.00 in
Snow Depth Not available.
UV 0 out of 12
Pollen 7.00 out of 12
Air Quality Not available.
Flu Activity Sporadic
METAR KUKI 240356Z AUTO 03003KT 10SM CLR 19/07 A3002 RMK AO2 SLP159 T01890072

More Conditions Fewer Conditions

Pressure 30.00 in
Visibility 10.0 miles
Clouds Clear
Dew Point 50 °F
Humidity 89%
Rainfall 0.00 in
Snow Depth Not available.
UV 0 out of 12
Pollen 7.00 out of 12
Air Quality Not available.
Flu Activity Sporadic
METAR KUKI 240356Z AUTO 03003KT 10SM CLR 19/07 A3002 RMK AO2 SLP159 T01890072

More Conditions Fewer Conditions

10-Day Weather Forecast

Almanac

Astronomy

May. 23, 2015 Rise Set
Actual Time
Civil Twilight
Nautical Twilight
Astronomical Twilight
Moon
Length of Visible Light
Length of Day
Tomorrow will be .
, % of the Moon is Illuminated

Today's Extremes

State Highs State Lows

Community

WunderPhotos

Upload Photos

1,823,679 photos uploaded!

WunderBlogs® & News

Nearby

Air Quality

  Air Quality AQ Index Pollutant
Not available.

Snow Depth

Station Depth Elevation

Earthquake Activity

City Distance Mag. Time & Date
Minimum magnitude displayed is 2.5.

Coastal Water Temperatures

Place Temperature

Stations

Nearby Weather Stations

Station Location Temp. Windchill Dew Point Humidity Wind Precip. Elev Updated Type